createdAt,value
2023-05-05T00:00:51.037Z,1017.10
2023-05-05T00:01:56.234Z,1017.09
2023-05-05T00:02:50.986Z,1017.10
2023-05-05T00:03:51.065Z,1017.06
2023-05-05T00:04:50.907Z,1017.07
2023-05-05T00:05:50.868Z,1017.07
2023-05-05T00:06:50.888Z,1017.09
2023-05-05T00:07:50.802Z,1017.04
2023-05-05T00:08:50.796Z,1017.08
2023-05-05T00:09:50.742Z,1017.06
2023-05-05T00:10:50.713Z,1017.06
2023-05-05T00:11:50.664Z,1017.06
2023-05-05T00:12:50.742Z,1017.03
2023-05-05T00:13:50.592Z,1017.04
2023-05-05T00:14:50.564Z,1017.03
2023-05-05T00:15:50.569Z,1017.00
2023-05-05T00:16:50.534Z,1017.02
2023-05-05T00:17:50.513Z,1016.98
2023-05-05T00:18:50.495Z,1017.01
2023-05-05T00:19:50.398Z,1017.00
2023-05-05T00:20:50.375Z,1017.04
2023-05-05T00:21:50.351Z,1016.98
2023-05-05T00:22:50.301Z,1017.03
2023-05-05T00:23:50.260Z,1017.03
2023-05-05T00:24:50.309Z,1017.01
2023-05-05T00:25:50.197Z,1016.99
2023-05-05T00:26:50.162Z,1017.01
2023-05-05T00:27:50.189Z,1017.02
2023-05-05T00:28:50.100Z,1016.98
2023-05-05T00:29:50.063Z,1016.99
2023-05-05T00:30:50.084Z,1017.00
2023-05-05T00:31:50.003Z,1017.01
2023-05-05T00:32:50.053Z,1016.98
2023-05-05T00:33:49.938Z,1016.99
2023-05-05T00:34:49.908Z,1016.96
2023-05-05T00:35:49.872Z,1016.98
2023-05-05T00:36:49.851Z,1016.95
2023-05-05T00:37:49.865Z,1016.92
2023-05-05T00:38:49.783Z,1016.90
2023-05-05T00:39:49.741Z,1016.90
2023-05-05T00:40:49.705Z,1016.93
2023-05-05T00:41:49.677Z,1016.91
2023-05-05T00:42:49.803Z,1016.94
2023-05-05T00:43:49.619Z,1016.96
2023-05-05T00:44:49.567Z,1016.93
2023-05-05T00:45:49.541Z,1016.88
2023-05-05T00:46:49.536Z,1016.92
2023-05-05T00:47:49.576Z,1016.89
2023-05-05T00:48:49.900Z,1016.89
2023-05-05T00:49:49.415Z,1016.86
2023-05-05T00:50:49.385Z,1016.91
2023-05-05T00:51:49.341Z,1016.94
2023-05-05T00:52:49.321Z,1016.85
2023-05-05T00:53:49.284Z,1016.86
2023-05-05T00:54:49.297Z,1016.82
2023-05-05T00:55:49.218Z,1016.82
2023-05-05T00:56:49.810Z,1016.83
2023-05-05T00:57:49.162Z,1016.81
2023-05-05T00:58:49.117Z,1016.80
2023-05-05T00:59:49.076Z,1016.79
2023-05-05T01:00:49.094Z,1016.77
2023-05-05T01:01:49.037Z,1016.74
2023-05-05T01:02:49.026Z,1016.78
2023-05-05T01:03:49.029Z,1016.76
2023-05-05T01:04:48.911Z,1016.74
2023-05-05T01:05:48.925Z,1016.75
2023-05-05T01:06:48.860Z,1016.76
2023-05-05T01:07:48.806Z,1016.73
2023-05-05T01:08:48.774Z,1016.72
2023-05-05T01:09:48.987Z,1016.69
2023-05-05T01:10:48.778Z,1016.71
2023-05-05T01:11:48.674Z,1016.72
2023-05-05T01:12:48.643Z,1016.69
2023-05-05T01:13:48.612Z,1016.72
2023-05-05T01:14:48.564Z,1016.76
2023-05-05T01:15:48.639Z,1016.73
2023-05-05T01:16:48.522Z,1016.76
2023-05-05T01:17:48.526Z,1016.76
2023-05-05T01:18:48.434Z,1016.79
2023-05-05T01:19:49.308Z,1016.73
2023-05-05T01:20:48.429Z,1016.75
2023-05-05T01:21:48.342Z,1016.75
2023-05-05T01:22:48.298Z,1016.67
2023-05-05T01:23:48.276Z,1016.70
2023-05-05T01:24:48.252Z,1016.68
2023-05-05T01:25:48.260Z,1016.65
2023-05-05T01:26:48.174Z,1016.65
2023-05-05T01:27:48.134Z,1016.64
2023-05-05T01:28:48.107Z,1016.64
2023-05-05T01:29:48.060Z,1016.65
2023-05-05T01:30:48.081Z,1016.65
2023-05-05T01:31:48.049Z,1016.64
2023-05-05T01:32:48.089Z,1016.65
2023-05-05T01:33:47.931Z,1016.67
2023-05-05T01:34:47.904Z,1016.66
2023-05-05T01:35:47.922Z,1016.70
2023-05-05T01:36:47.843Z,1016.64
2023-05-05T01:37:47.826Z,1016.70
2023-05-05T01:38:47.767Z,1016.71
2023-05-05T01:39:47.766Z,1016.70
2023-05-05T01:40:47.747Z,1016.70
2023-05-05T01:41:47.668Z,1016.70
2023-05-05T01:42:47.634Z,1016.71
2023-05-05T01:43:47.598Z,1016.70
2023-05-05T01:44:47.560Z,1016.71
2023-05-05T01:45:47.640Z,1016.75
2023-05-05T01:46:47.556Z,1016.70
2023-05-05T01:47:47.485Z,1016.67
2023-05-05T01:48:47.435Z,1016.69
2023-05-05T01:49:47.397Z,1016.65
2023-05-05T01:50:47.352Z,1016.64
2023-05-05T01:51:47.388Z,1016.65
2023-05-05T01:52:47.299Z,1016.61
2023-05-05T01:53:47.327Z,1016.64
2023-05-05T01:54:47.244Z,1016.67
2023-05-05T01:55:47.196Z,1016.64
2023-05-05T01:56:49.749Z,1016.65
2023-05-05T01:57:47.151Z,1016.65
2023-05-05T01:58:47.103Z,1016.65
2023-05-05T01:59:47.061Z,1016.66
2023-05-05T02:00:47.041Z,1016.68
2023-05-05T02:01:47.117Z,1016.65
2023-05-05T02:02:47.020Z,1016.66
2023-05-05T02:03:46.928Z,1016.68
2023-05-05T02:04:46.893Z,1016.70
2023-05-05T02:05:46.869Z,1016.70
2023-05-05T02:06:46.820Z,1016.71
2023-05-05T02:07:46.876Z,1016.73
2023-05-05T02:08:46.774Z,1016.68
2023-05-05T02:09:46.722Z,1016.69
2023-05-05T02:10:46.685Z,1016.70
2023-05-05T02:11:46.665Z,1016.70
2023-05-05T02:12:46.741Z,1016.70
2023-05-05T02:13:46.658Z,1016.69
2023-05-05T02:14:46.552Z,1016.71
2023-05-05T02:15:46.533Z,1016.69
2023-05-05T02:16:46.490Z,1016.67
2023-05-05T02:17:46.505Z,1016.68
2023-05-05T02:18:46.476Z,1016.69
2023-05-05T02:19:46.381Z,1016.66
2023-05-05T02:20:46.363Z,1016.67
2023-05-05T02:21:46.342Z,1016.71
2023-05-05T02:22:46.289Z,1016.70
2023-05-05T02:23:46.325Z,1016.70
2023-05-05T02:24:46.293Z,1016.69
2023-05-05T02:25:46.218Z,1016.66
2023-05-05T02:26:46.174Z,1016.67
2023-05-05T02:27:46.134Z,1016.66
2023-05-05T02:28:46.086Z,1016.67
2023-05-05T02:29:46.053Z,1016.66
2023-05-05T02:30:46.080Z,1016.68
2023-05-05T02:31:46.096Z,1016.64
2023-05-05T02:32:46.023Z,1016.65
2023-05-05T02:33:45.917Z,1016.67
2023-05-05T02:34:45.879Z,1016.65
2023-05-05T02:35:45.913Z,1016.65
2023-05-05T02:36:45.808Z,1016.64
2023-05-05T02:37:45.796Z,1016.66
2023-05-05T02:38:45.751Z,1016.63
2023-05-05T02:39:45.732Z,1016.63
2023-05-05T02:40:45.760Z,1016.65
2023-05-05T02:41:45.658Z,1016.64
2023-05-05T02:42:45.633Z,1016.62
2023-05-05T02:43:45.574Z,1016.62
2023-05-05T02:44:45.560Z,1016.62
2023-05-05T02:45:45.506Z,1016.62
2023-05-05T02:46:45.561Z,1016.60
2023-05-05T02:47:45.495Z,1016.63
2023-05-05T02:48:45.438Z,1016.63
2023-05-05T02:49:46.328Z,1016.62
2023-05-05T02:50:45.340Z,1016.60
2023-05-05T02:51:45.378Z,1016.63
2023-05-05T02:52:45.272Z,1016.61
2023-05-05T02:53:45.246Z,1016.63
2023-05-05T02:54:45.715Z,1016.61
2023-05-05T02:55:45.166Z,1016.61
2023-05-05T02:56:45.141Z,1016.63
2023-05-05T02:57:45.160Z,1016.60
2023-05-05T02:58:45.079Z,1016.60
2023-05-05T02:59:45.073Z,1016.64
2023-05-05T03:00:45.017Z,1016.63
2023-05-05T03:01:45.031Z,1016.56
2023-05-05T03:02:44.997Z,1016.55
2023-05-05T03:03:45.053Z,1016.54
2023-05-05T03:04:44.863Z,1016.57
2023-05-05T03:05:44.834Z,1016.52
2023-05-05T03:06:44.801Z,1016.53
2023-05-05T03:07:44.786Z,1016.52
2023-05-05T03:08:44.725Z,1016.52
2023-05-05T03:09:44.749Z,1016.52
2023-05-05T03:10:44.652Z,1016.54
2023-05-05T03:11:44.650Z,1016.50
2023-05-05T03:12:44.603Z,1016.53
2023-05-05T03:13:44.552Z,1016.52
2023-05-05T03:14:44.536Z,1016.57
2023-05-05T03:15:44.544Z,1016.55
2023-05-05T03:16:44.492Z,1016.55
2023-05-05T03:17:44.467Z,1016.52
2023-05-05T03:18:44.387Z,1016.52
2023-05-05T03:19:44.350Z,1016.51
2023-05-05T03:20:44.323Z,1016.53
2023-05-05T03:21:44.343Z,1016.47
2023-05-05T03:22:44.252Z,1016.51
2023-05-05T03:23:44.219Z,1016.47
2023-05-05T03:24:44.188Z,1016.46
2023-05-05T03:25:44.170Z,1016.46
2023-05-05T03:26:44.121Z,1016.46
2023-05-05T03:27:44.310Z,1016.39
2023-05-05T03:28:44.831Z,1016.43
2023-05-05T03:29:44.020Z,1016.46
2023-05-05T03:30:43.984Z,1016.39
2023-05-05T03:31:44.013Z,1016.43
2023-05-05T03:32:43.940Z,1016.39
2023-05-05T03:33:43.956Z,1016.42
2023-05-05T03:34:43.864Z,1016.40
2023-05-05T03:35:43.883Z,1016.40
2023-05-05T03:36:43.788Z,1016.38
2023-05-05T03:37:43.747Z,1016.36
2023-05-05T03:38:43.708Z,1016.43
2023-05-05T03:39:43.732Z,1016.40
2023-05-05T03:40:44.770Z,1016.42
2023-05-05T03:41:43.598Z,1016.40
2023-05-05T03:42:43.566Z,1016.40
2023-05-05T03:43:43.543Z,1016.41
2023-05-05T03:44:43.561Z,1016.38
2023-05-05T03:45:43.518Z,1016.40
2023-05-05T03:46:43.439Z,1016.39
2023-05-05T03:47:43.457Z,1016.35
2023-05-05T03:48:43.374Z,1016.37
2023-05-05T03:49:43.432Z,1016.35
2023-05-05T03:50:43.357Z,1016.37
2023-05-05T03:51:43.274Z,1016.35
2023-05-05T03:52:43.230Z,1016.34
2023-05-05T03:53:43.200Z,1016.35
2023-05-05T03:54:43.220Z,1016.35
2023-05-05T03:55:43.166Z,1016.32
2023-05-05T03:56:43.098Z,1016.34
2023-05-05T03:57:43.061Z,1016.33
2023-05-05T03:58:43.052Z,1016.32
2023-05-05T03:59:43.064Z,1016.29
2023-05-05T04:00:42.982Z,1016.33
2023-05-05T04:01:42.926Z,1016.31
2023-05-05T04:02:44.801Z,1016.33
2023-05-05T04:03:42.941Z,1016.31
2023-05-05T04:04:42.833Z,1016.33
2023-05-05T04:05:42.851Z,1016.33
2023-05-05T04:06:43.351Z,1016.34
2023-05-05T04:07:42.734Z,1016.35
2023-05-05T04:08:42.680Z,1016.34
2023-05-05T04:09:42.657Z,1016.39
2023-05-05T04:10:42.626Z,1016.35
2023-05-05T04:11:42.652Z,1016.38
2023-05-05T04:12:43.282Z,1016.39
2023-05-05T04:13:42.541Z,1016.40
2023-05-05T04:14:42.495Z,1016.43
2023-05-05T04:15:42.476Z,1016.42
2023-05-05T04:16:42.422Z,1016.43
2023-05-05T04:17:42.468Z,1016.39
2023-05-05T04:18:42.404Z,1016.41
2023-05-05T04:19:42.399Z,1016.43
2023-05-05T04:20:42.854Z,1016.42
2023-05-05T04:21:42.259Z,1016.48
2023-05-05T04:22:42.277Z,1016.47
2023-05-05T04:23:42.354Z,1016.48
2023-05-05T04:24:42.162Z,1016.52
2023-05-05T04:25:42.136Z,1016.47
2023-05-05T04:26:42.099Z,1016.47
2023-05-05T04:27:42.068Z,1016.50
2023-05-05T04:28:42.047Z,1016.51
2023-05-05T04:29:42.100Z,1016.56
2023-05-05T04:30:41.957Z,1016.57
2023-05-05T04:31:42.565Z,1016.61
2023-05-05T04:32:41.919Z,1016.59
2023-05-05T04:33:41.865Z,1016.58
2023-05-05T04:34:41.833Z,1016.63
2023-05-05T04:35:41.791Z,1016.65
2023-05-05T04:36:41.760Z,1016.65
2023-05-05T04:37:41.812Z,1016.70
2023-05-05T04:38:41.747Z,1016.69
2023-05-05T04:39:41.664Z,1016.68
2023-05-05T04:40:41.638Z,1016.68
2023-05-05T04:41:41.602Z,1016.66
2023-05-05T04:42:41.562Z,1016.69
2023-05-05T04:43:41.614Z,1016.65
2023-05-05T04:44:41.517Z,1016.68
2023-05-05T04:45:41.473Z,1016.70
2023-05-05T04:46:41.504Z,1016.73
2023-05-05T04:47:41.468Z,1016.79
2023-05-05T04:48:41.433Z,1016.75
2023-05-05T04:49:41.348Z,1016.73
2023-05-05T04:50:41.311Z,1016.73
2023-05-05T04:51:41.282Z,1016.77
2023-05-05T04:52:41.246Z,1016.78
2023-05-05T04:53:41.284Z,1016.77
2023-05-05T04:54:41.181Z,1016.76
2023-05-05T04:55:41.152Z,1016.75
2023-05-05T04:56:41.116Z,1016.71
2023-05-05T04:57:41.080Z,1016.72
2023-05-05T04:58:41.053Z,1016.82
2023-05-05T04:59:41.422Z,1016.77
2023-05-05T05:00:41.001Z,1016.81
2023-05-05T05:01:41.011Z,1016.86
2023-05-05T05:02:41.022Z,1016.84
2023-05-05T05:03:40.943Z,1016.89
2023-05-05T05:04:40.925Z,1016.88
2023-05-05T05:05:40.831Z,1016.85
2023-05-05T05:06:40.801Z,1016.84
2023-05-05T05:07:40.781Z,1016.87
2023-05-05T05:08:40.738Z,1016.88
2023-05-05T05:09:40.704Z,1016.87
2023-05-05T05:10:40.741Z,1016.84
2023-05-05T05:11:40.648Z,1016.84
2023-05-05T05:12:40.647Z,1016.86
2023-05-05T05:13:40.628Z,1016.94
2023-05-05T05:14:40.564Z,1016.88
2023-05-05T05:15:40.514Z,1016.88
2023-05-05T05:16:40.693Z,1016.89
2023-05-05T05:17:40.493Z,1016.88
2023-05-05T05:18:40.429Z,1016.88
2023-05-05T05:19:40.416Z,1016.86
2023-05-05T05:20:40.368Z,1016.86
2023-05-05T05:21:40.353Z,1016.84
2023-05-05T05:22:40.363Z,1016.83
2023-05-05T05:23:40.869Z,1016.88
2023-05-05T05:24:40.237Z,1016.85
2023-05-05T05:25:40.202Z,1016.88
2023-05-05T05:26:40.175Z,1016.87
2023-05-05T05:27:40.195Z,1016.91
2023-05-05T05:28:40.184Z,1016.92
2023-05-05T05:29:40.116Z,1016.90
2023-05-05T05:30:40.048Z,1016.95
2023-05-05T05:31:40.112Z,1016.90
2023-05-05T05:32:40.081Z,1016.92
2023-05-05T05:33:39.963Z,1016.96
2023-05-05T05:34:39.921Z,1016.93
2023-05-05T05:35:39.896Z,1016.90
2023-05-05T05:36:39.854Z,1016.92
2023-05-05T05:37:39.882Z,1016.90
2023-05-05T05:38:39.789Z,1016.89
2023-05-05T05:39:41.931Z,1016.90
2023-05-05T05:40:39.741Z,1016.84
2023-05-05T05:41:39.700Z,1016.86
2023-05-05T05:42:39.674Z,1016.82
2023-05-05T05:43:39.689Z,1016.84
2023-05-05T05:44:39.617Z,1016.86
2023-05-05T05:45:39.589Z,1016.90
2023-05-05T05:46:39.620Z,1016.85
2023-05-05T05:47:39.537Z,1016.79
2023-05-05T05:48:39.578Z,1016.85
2023-05-05T05:49:39.495Z,1016.87
2023-05-05T05:50:39.424Z,1016.79
2023-05-05T05:51:39.520Z,1016.80
2023-05-05T05:52:39.353Z,1016.81
2023-05-05T05:53:39.328Z,1016.84
2023-05-05T05:54:39.286Z,1016.84
2023-05-05T05:55:39.358Z,1016.82
2023-05-05T05:56:39.225Z,1016.85
2023-05-05T05:57:39.189Z,1016.82
2023-05-05T05:58:39.161Z,1016.84
2023-05-05T05:59:39.183Z,1016.89
2023-05-05T06:00:39.086Z,1016.89
2023-05-05T06:01:39.114Z,1016.90
2023-05-05T06:02:39.145Z,1016.85
2023-05-05T06:03:39.053Z,1016.88
2023-05-05T06:04:39.019Z,1016.88
2023-05-05T06:05:38.936Z,1016.86
2023-05-05T06:06:38.971Z,1016.87
2023-05-05T06:07:38.931Z,1016.88
2023-05-05T06:08:38.847Z,1016.89
2023-05-05T06:09:38.810Z,1016.85
2023-05-05T06:10:38.801Z,1016.77
2023-05-05T06:11:38.755Z,1016.84
2023-05-05T06:12:38.800Z,1016.76
2023-05-05T06:13:38.683Z,1016.79
2023-05-05T06:14:38.664Z,1016.78
2023-05-05T06:15:38.674Z,1016.80
2023-05-05T06:16:38.588Z,1016.83
2023-05-05T06:17:38.632Z,1016.79
2023-05-05T06:18:38.598Z,1016.76
2023-05-05T06:19:38.504Z,1016.80
2023-05-05T06:20:38.463Z,1016.79
2023-05-05T06:21:38.433Z,1016.76
2023-05-05T06:22:38.435Z,1016.77
2023-05-05T06:23:38.377Z,1016.80
2023-05-05T06:24:38.413Z,1016.83
2023-05-05T06:25:38.356Z,1016.78
2023-05-05T06:26:38.282Z,1016.79
2023-05-05T06:27:38.254Z,1016.80
2023-05-05T06:28:38.213Z,1016.81
2023-05-05T06:29:38.182Z,1016.78
2023-05-05T06:30:38.214Z,1016.83
2023-05-05T06:31:38.235Z,1016.81
2023-05-05T06:32:38.121Z,1016.79
2023-05-05T06:33:38.059Z,1016.76
2023-05-05T06:34:38.050Z,1016.78
2023-05-05T06:35:38.001Z,1016.83
2023-05-05T06:36:38.058Z,1016.78
2023-05-05T06:37:37.935Z,1016.78
2023-05-05T06:38:37.916Z,1016.77
2023-05-05T06:39:37.879Z,1016.77
2023-05-05T06:40:37.961Z,1016.85
2023-05-05T06:41:37.865Z,1016.86
2023-05-05T06:42:37.854Z,1016.87
2023-05-05T06:43:37.771Z,1016.92
2023-05-05T06:44:37.731Z,1016.94
2023-05-05T06:45:37.691Z,1016.96
2023-05-05T06:46:37.706Z,1016.87
2023-05-05T06:47:37.704Z,1016.96
2023-05-05T06:48:37.613Z,1017.02
2023-05-05T06:49:37.580Z,1017.00
2023-05-05T06:50:37.586Z,1017.02
2023-05-05T06:51:37.517Z,1017.00
2023-05-05T06:52:37.492Z,1017.02
2023-05-05T06:53:37.503Z,1017.04
2023-05-05T06:54:37.426Z,1017.06
2023-05-05T06:55:37.375Z,1017.04
2023-05-05T06:56:37.357Z,1017.04
2023-05-05T06:57:37.321Z,1017.09
2023-05-05T06:58:37.398Z,1017.07
2023-05-05T06:59:37.261Z,1017.09
2023-05-05T07:00:37.241Z,1017.09
2023-05-05T07:01:37.214Z,1017.05
2023-05-05T07:02:37.193Z,1017.03
2023-05-05T07:03:37.177Z,1017.10
2023-05-05T07:04:37.171Z,1017.01
2023-05-05T07:05:37.073Z,1017.03
2023-05-05T07:06:37.048Z,1016.99
2023-05-05T07:07:37.021Z,1016.96
2023-05-05T07:08:36.984Z,1016.97
2023-05-05T07:09:37.004Z,1017.00
2023-05-05T07:10:36.959Z,1016.95
2023-05-05T07:11:36.895Z,1016.98
2023-05-05T07:12:36.881Z,1016.98
2023-05-05T07:13:36.832Z,1017.04
2023-05-05T07:14:36.856Z,1017.03
2023-05-05T07:15:36.781Z,1017.02
2023-05-05T07:16:36.816Z,1017.06
2023-05-05T07:17:36.739Z,1017.01
2023-05-05T07:18:36.663Z,1017.07
2023-05-05T07:19:36.626Z,1017.03
2023-05-05T07:20:36.612Z,1017.08
2023-05-05T07:21:36.605Z,1017.10
2023-05-05T07:22:36.599Z,1017.09
2023-05-05T07:23:36.507Z,1017.01
2023-05-05T07:24:36.478Z,1017.05
2023-05-05T07:25:36.442Z,1017.07
2023-05-05T07:26:36.414Z,1017.08
2023-05-05T07:27:36.439Z,1017.05
2023-05-05T07:28:36.357Z,1017.06
2023-05-05T07:29:36.320Z,1017.15
2023-05-05T07:30:37.034Z,1017.07
2023-05-05T07:31:36.316Z,1017.10
2023-05-05T07:32:36.494Z,1017.09
2023-05-05T07:33:36.207Z,1017.10
2023-05-05T07:34:36.160Z,1017.15
2023-05-05T07:35:36.146Z,1017.09
2023-05-05T07:36:36.102Z,1017.12
2023-05-05T07:37:36.067Z,1017.08
2023-05-05T07:38:36.103Z,1017.05
2023-05-05T07:39:36.019Z,1017.13
2023-05-05T07:40:35.976Z,1017.15
2023-05-05T07:41:35.955Z,1017.14
2023-05-05T07:42:36.079Z,1017.08
2023-05-05T07:43:35.887Z,1017.18
2023-05-05T07:44:35.925Z,1017.15
2023-05-05T07:45:35.887Z,1017.12
2023-05-05T07:46:36.715Z,1017.13
2023-05-05T07:47:35.787Z,1017.13
2023-05-05T07:48:35.737Z,1017.09
2023-05-05T07:49:35.706Z,1017.18
2023-05-05T07:50:35.725Z,1017.14
2023-05-05T07:51:35.652Z,1017.09
2023-05-05T07:52:46.534Z,1017.08
2023-05-05T07:53:35.568Z,1017.11
2023-05-05T07:54:35.567Z,1017.10
2023-05-05T07:55:35.522Z,1017.09
2023-05-05T07:56:35.538Z,1017.03
2023-05-05T07:57:35.503Z,1017.10
2023-05-05T07:58:35.432Z,1017.09
2023-05-05T07:59:35.394Z,1017.03
2023-05-05T08:00:35.379Z,1017.05
2023-05-05T08:01:35.911Z,1017.05
2023-05-05T08:02:35.448Z,1017.10
2023-05-05T08:03:35.437Z,1017.08
2023-05-05T08:04:35.344Z,1017.12
2023-05-05T08:05:35.218Z,1017.07
2023-05-05T08:06:35.183Z,1017.10
2023-05-05T08:07:35.155Z,1017.12
2023-05-05T08:08:35.168Z,1017.06
2023-05-05T08:09:35.078Z,1017.02
2023-05-05T08:10:35.054Z,1017.04
2023-05-05T08:11:35.027Z,1016.99
2023-05-05T08:12:35.009Z,1017.00
2023-05-05T08:13:35.026Z,1016.97
2023-05-05T08:14:34.934Z,1017.00
2023-05-05T08:15:34.914Z,1016.95
2023-05-05T08:16:34.980Z,1016.97
2023-05-05T08:17:35.812Z,1016.95
2023-05-05T08:18:34.891Z,1016.97
2023-05-05T08:19:35.413Z,1016.95
2023-05-05T08:20:34.756Z,1016.95
2023-05-05T08:21:34.728Z,1016.93
2023-05-05T08:22:34.699Z,1016.94
2023-05-05T08:23:34.676Z,1016.89
2023-05-05T08:24:34.635Z,1016.90
2023-05-05T08:25:34.691Z,1016.99
2023-05-05T08:26:34.573Z,1016.97
2023-05-05T08:27:34.551Z,1016.92
2023-05-05T08:28:34.521Z,1016.97
2023-05-05T08:29:34.532Z,1016.95
2023-05-05T08:30:34.459Z,1016.94
2023-05-05T08:31:34.507Z,1017.06
2023-05-05T08:32:34.419Z,1016.96
2023-05-05T08:33:34.387Z,1016.95
2023-05-05T08:34:34.376Z,1016.98
2023-05-05T08:35:34.313Z,1016.97
2023-05-05T08:36:34.318Z,1016.96
2023-05-05T08:37:34.272Z,1016.98
2023-05-05T08:38:34.227Z,1016.99
2023-05-05T08:39:34.191Z,1017.02
2023-05-05T08:40:34.169Z,1017.02
2023-05-05T08:41:34.130Z,1016.99
2023-05-05T08:42:38.695Z,1017.03
2023-05-05T08:43:34.061Z,1017.01
2023-05-05T08:44:34.082Z,1017.02
2023-05-05T08:45:34.020Z,1017.03
2023-05-05T08:46:34.021Z,1017.11
2023-05-05T08:47:33.998Z,1017.16
2023-05-05T08:48:33.969Z,1017.08
2023-05-05T08:49:33.888Z,1017.08
2023-05-05T08:50:33.906Z,1017.11
2023-05-05T08:51:33.936Z,1017.03
2023-05-05T08:52:33.900Z,1017.08
2023-05-05T08:53:33.926Z,1017.09
2023-05-05T08:54:33.732Z,1017.17
2023-05-05T08:55:33.718Z,1017.13
2023-05-05T08:56:33.690Z,1017.07
2023-05-05T08:57:33.642Z,1017.05
2023-05-05T08:58:33.620Z,1017.07
2023-05-05T08:59:33.647Z,1017.06
2023-05-05T09:00:33.556Z,1017.04
2023-05-05T09:01:33.585Z,1017.02
2023-05-05T09:02:33.582Z,1017.05
2023-05-05T09:03:33.530Z,1017.03
2023-05-05T09:04:33.474Z,1016.99
2023-05-05T09:05:34.306Z,1017.00
2023-05-05T09:06:33.442Z,1017.02
2023-05-05T09:07:33.354Z,1017.01
2023-05-05T09:08:33.319Z,1016.97
2023-05-05T09:09:33.298Z,1017.02
2023-05-05T09:10:33.334Z,1017.05
2023-05-05T09:11:33.253Z,1017.08
2023-05-05T09:12:33.267Z,1017.13
2023-05-05T09:13:33.174Z,1017.03
2023-05-05T09:14:33.161Z,1017.04
2023-05-05T09:15:33.124Z,1016.96
2023-05-05T09:16:33.162Z,1017.03
2023-05-05T09:17:33.075Z,1017.03
2023-05-05T09:18:33.028Z,1017.01
2023-05-05T09:19:33.008Z,1016.93
2023-05-05T09:20:32.980Z,1016.93
2023-05-05T09:21:35.820Z,1016.87
2023-05-05T09:22:33.501Z,1016.88
2023-05-05T09:23:32.881Z,1016.94
2023-05-05T09:24:32.914Z,1016.91
2023-05-05T09:25:32.830Z,1016.89
2023-05-05T09:26:32.813Z,1016.94
2023-05-05T09:27:32.824Z,1016.95
2023-05-05T09:28:32.745Z,1016.94
2023-05-05T09:29:32.740Z,1016.88
2023-05-05T09:30:32.690Z,1016.94
2023-05-05T09:31:32.750Z,1016.92
2023-05-05T09:32:32.646Z,1016.83
2023-05-05T09:33:32.657Z,1016.86
2023-05-05T09:34:32.614Z,1016.87
2023-05-05T09:35:32.578Z,1016.81
2023-05-05T09:36:32.529Z,1016.82
2023-05-05T09:37:32.488Z,1016.87
2023-05-05T09:38:32.535Z,1016.83
2023-05-05T09:39:32.440Z,1016.85
2023-05-05T09:40:32.428Z,1016.86
2023-05-05T09:41:32.482Z,1016.89
2023-05-05T09:42:32.351Z,1016.96
2023-05-05T09:43:32.320Z,1016.93
2023-05-05T09:44:32.337Z,1016.91
2023-05-05T09:45:32.267Z,1016.93
2023-05-05T09:46:32.294Z,1016.91
2023-05-05T09:47:32.959Z,1016.92
2023-05-05T09:48:32.300Z,1016.93
2023-05-05T09:49:32.170Z,1016.90
2023-05-05T09:50:32.173Z,1016.97
2023-05-05T09:51:32.102Z,1017.04
2023-05-05T09:52:32.131Z,1017.05
2023-05-05T09:53:32.082Z,1017.01
2023-05-05T09:54:32.069Z,1017.10
2023-05-05T09:55:32.036Z,1016.97
2023-05-05T09:56:32.010Z,1017.03
2023-05-05T09:57:36.825Z,1017.03
2023-05-05T09:58:32.065Z,1016.97
2023-05-05T09:59:31.918Z,1017.04
2023-05-05T10:00:31.846Z,1017.01
2023-05-05T10:01:31.866Z,1016.99
2023-05-05T10:02:31.814Z,1016.98
2023-05-05T10:03:31.790Z,1016.96
2023-05-05T10:04:31.821Z,1016.98
2023-05-05T10:05:31.725Z,1016.98
2023-05-05T10:06:31.750Z,1016.95
2023-05-05T10:07:31.661Z,1016.97
2023-05-05T10:08:31.641Z,1016.92
2023-05-05T10:09:32.334Z,1016.95
2023-05-05T10:10:31.661Z,1017.01
2023-05-05T10:11:31.537Z,1016.94
2023-05-05T10:12:31.590Z,1016.90
2023-05-05T10:13:31.574Z,1016.96
2023-05-05T10:14:31.492Z,1016.88
2023-05-05T10:15:31.474Z,1016.90
2023-05-05T10:16:32.361Z,1016.83
2023-05-05T10:17:31.491Z,1016.87
2023-05-05T10:18:31.390Z,1016.87
2023-05-05T10:19:31.318Z,1016.87
2023-05-05T10:20:31.369Z,1016.90
2023-05-05T10:21:31.268Z,1016.91
2023-05-05T10:22:31.252Z,1016.88
2023-05-05T10:23:31.245Z,1016.82
2023-05-05T10:24:31.197Z,1016.88
2023-05-05T10:25:31.179Z,1016.82
2023-05-05T10:26:31.249Z,1016.82
2023-05-05T10:27:31.381Z,1016.86
2023-05-05T10:28:31.076Z,1016.84
2023-05-05T10:29:31.053Z,1016.79
2023-05-05T10:30:31.028Z,1016.80
2023-05-05T10:31:31.052Z,1016.82
2023-05-05T10:32:50.174Z,1016.84
2023-05-05T10:33:32.420Z,1016.81
2023-05-05T10:34:31.015Z,1016.81
2023-05-05T10:35:30.911Z,1016.79
2023-05-05T10:36:30.888Z,1016.80
2023-05-05T10:37:30.895Z,1016.75
2023-05-05T10:38:30.911Z,1016.71
2023-05-05T10:39:30.793Z,1016.73
2023-05-05T10:40:30.755Z,1016.70
2023-05-05T10:41:30.753Z,1016.74
2023-05-05T10:42:30.880Z,1016.71
2023-05-05T10:43:30.750Z,1016.71
2023-05-05T10:44:30.635Z,1016.61
2023-05-05T10:45:30.686Z,1016.76
2023-05-05T10:46:30.629Z,1016.68
2023-05-05T10:47:30.582Z,1016.71
2023-05-05T10:48:30.662Z,1016.72
2023-05-05T10:49:30.497Z,1016.68
2023-05-05T10:50:30.507Z,1016.69
2023-05-05T10:51:39.360Z,1016.67
2023-05-05T10:52:30.437Z,1016.69
2023-05-05T10:53:30.418Z,1016.66
2023-05-05T10:54:30.571Z,1016.66
2023-05-05T10:55:30.331Z,1016.59
2023-05-05T10:56:30.338Z,1016.67
2023-05-05T10:57:30.288Z,1016.69
2023-05-05T10:58:30.342Z,1016.69
2023-05-05T10:59:30.257Z,1016.70
2023-05-05T11:00:30.282Z,1016.66
2023-05-05T11:01:30.274Z,1016.66
2023-05-05T11:02:30.227Z,1016.58
2023-05-05T11:03:30.146Z,1016.56
2023-05-05T11:04:30.111Z,1016.58
2023-05-05T11:05:30.058Z,1016.58
2023-05-05T11:06:30.078Z,1016.56
2023-05-05T11:07:30.005Z,1016.53
2023-05-05T11:08:29.993Z,1016.54
2023-05-05T11:09:30.000Z,1016.48
2023-05-05T11:10:29.922Z,1016.48
2023-05-05T11:11:29.908Z,1016.44
2023-05-05T11:12:29.983Z,1016.48
2023-05-05T11:13:29.854Z,1016.53
2023-05-05T11:14:29.933Z,1016.42
2023-05-05T11:15:29.843Z,1016.44
2023-05-05T11:16:29.792Z,1016.48
2023-05-05T11:17:29.818Z,1016.46
2023-05-05T11:18:29.774Z,1016.38
2023-05-05T11:19:29.707Z,1016.43
2023-05-05T11:20:29.712Z,1016.40
2023-05-05T11:21:29.852Z,1016.38
2023-05-05T11:22:29.623Z,1016.35
2023-05-05T11:23:29.610Z,1016.28
2023-05-05T11:24:29.684Z,1016.34
2023-05-05T11:25:29.549Z,1016.36
2023-05-05T11:26:29.502Z,1016.34
2023-05-05T11:27:29.475Z,1016.30
2023-05-05T11:28:29.455Z,1016.29
2023-05-05T11:29:29.418Z,1016.24
2023-05-05T11:30:29.497Z,1016.19
2023-05-05T11:31:29.506Z,1016.23
2023-05-05T11:32:29.386Z,1016.17
2023-05-05T11:33:29.331Z,1016.11
2023-05-05T11:34:29.304Z,1016.11
2023-05-05T11:35:29.281Z,1016.01
2023-05-05T11:36:29.323Z,1016.07
2023-05-05T11:37:29.228Z,1015.99
2023-05-05T11:38:29.204Z,1016.00
2023-05-05T11:39:29.212Z,1016.05
2023-05-05T11:40:29.134Z,1016.03
2023-05-05T11:41:29.149Z,1015.98
2023-05-05T11:42:29.144Z,1016.00
2023-05-05T11:43:29.068Z,1015.98
2023-05-05T11:44:29.028Z,1015.99
2023-05-05T11:45:29.027Z,1015.92
2023-05-05T11:46:29.127Z,1015.88
2023-05-05T11:47:29.000Z,1015.86
2023-05-05T11:48:29.001Z,1015.97
2023-05-05T11:49:28.922Z,1015.94
2023-05-05T11:50:29.874Z,1016.01
2023-05-05T11:51:28.874Z,1015.98
2023-05-05T11:52:28.837Z,1015.98
2023-05-05T11:53:28.797Z,1015.93
2023-05-05T11:54:29.121Z,1016.03
2023-05-05T11:55:28.755Z,1015.98
2023-05-05T11:56:28.743Z,1015.99
2023-05-05T11:57:28.697Z,1015.98
2023-05-05T11:58:28.663Z,1015.95
2023-05-05T11:59:28.697Z,1015.95
2023-05-05T12:00:28.686Z,1015.92
2023-05-05T12:01:28.606Z,1015.98
2023-05-05T12:02:28.694Z,1015.86
2023-05-05T12:03:28.673Z,1015.95
2023-05-05T12:04:28.573Z,1015.98
2023-05-05T12:05:28.503Z,1015.88